Time;durP1;ratioP1;P1;durP2;ratioP2;P2;SDS_P1;SDS_P2;PMS_P1;PMS_P2;Temp;Humidity;BMP_temperature;BMP_pressure;BME280_temperature;BME280_humidity;BME280_pressure;Samples;Min_cycle;Max_cycle;Signal;HPM_P1;HPM_P2
2022/11/14 00:01:12;;;;;;;11.45;5.88;;;;;;;;;;5021654;28;20495;-80
2022/11/14 00:03:38;;;;;;;15.40;5.93;;;;;;;;;;5018312;28;20030;-81
2022/11/14 00:06:05;;;;;;;11.30;4.53;;;;;;;;;;5019711;28;20032;-79
2022/11/14 00:08:31;;;;;;;17.30;6.65;;;;;;;;;;5020621;28;20034;-81
2022/11/14 00:10:57;;;;;;;8.32;5.05;;;;;;;;;;5017635;28;20037;-82
2022/11/14 00:13:23;;;;;;;12.77;7.22;;;;;;;;;;5023751;28;20168;-80
2022/11/14 00:15:53;;;;;;;13.95;5.55;;;;;;;;;;5015418;28;20033;-81
2022/11/14 00:18:18;;;;;;;10.45;5.35;;;;;;;;;;5015570;28;20168;-81
2022/11/14 00:20:47;;;;;;;9.55;5.07;;;;;;;;;;5017435;28;20065;-80
2022/11/14 00:23:13;;;;;;;9.32;5.00;;;;;;;;;;5012376;28;20028;-81
2022/11/14 00:25:39;;;;;;;11.50;5.20;;;;;;;;;;5022595;28;20467;-79
2022/11/14 00:28:05;;;;;;;8.85;5.38;;;;;;;;;;5015619;28;20030;-80
2022/11/14 00:30:31;;;;;;;7.40;4.50;;;;;;;;;;5019102;28;20126;-81
2022/11/14 00:32:57;;;;;;;9.75;5.00;;;;;;;;;;5022775;28;20018;-79
2022/11/14 00:35:23;;;;;;;9.75;4.38;;;;;;;;;;5019285;28;20025;-80
2022/11/14 00:37:49;;;;;;;11.68;6.38;;;;;;;;;;5014699;28;20665;-81
2022/11/14 00:40:15;;;;;;;11.48;5.25;;;;;;;;;;5020322;28;20120;-80
2022/11/14 00:42:41;;;;;;;9.48;4.78;;;;;;;;;;5020961;28;20033;-79
2022/11/14 00:45:08;;;;;;;11.30;4.50;;;;;;;;;;5023676;28;20041;-80
2022/11/14 00:47:34;;;;;;;9.70;4.90;;;;;;;;;;5025281;28;20165;-81
2022/11/14 00:49:59;;;;;;;8.63;4.65;;;;;;;;;;5024910;28;20116;-80
2022/11/14 00:52:25;;;;;;;8.88;5.20;;;;;;;;;;5024472;28;20029;-80
2022/11/14 00:54:51;;;;;;;8.25;4.97;;;;;;;;;;5005153;28;20483;-80
2022/11/14 00:57:17;;;;;;;6.30;4.45;;;;;;;;;;5024119;28;20499;-80
2022/11/14 00:59:43;;;;;;;8.68;4.60;;;;;;;;;;5025395;28;20041;-80
2022/11/14 01:02:09;;;;;;;11.05;5.00;;;0.90;99.90;;;;;;5019916;28;20483;-80
2022/11/14 01:04:35;;;;;;;10.63;5.35;;;;;;;;;;5033097;28;20171;-80
2022/11/14 01:07:01;;;;;;;10.43;5.18;;;;;;;;;;5019826;28;20022;-79
2022/11/14 01:09:27;;;;;;;9.65;5.47;;;;;;;;;;5017388;28;20033;-80
2022/11/14 01:11:53;;;;;;;8.75;4.68;;;;;;;;;;5025688;28;20036;-79
2022/11/14 01:14:19;;;;;;;7.50;4.00;;;;;;;;;;5023144;28;20503;-81
2022/11/14 01:16:45;;;;;;;7.82;4.72;;;;;;;;;;5023198;28;22165;-81
2022/11/14 01:19:10;;;;;;;11.02;5.25;;;;;;;;;;5024971;28;20045;-79
2022/11/14 01:21:37;;;;;;;8.90;4.35;;;;;;;;;;5016296;28;20029;-80
2022/11/14 01:24:03;;;;;;;7.03;4.07;;;1.10;99.90;;;;;;5020623;28;20033;-80
2022/11/14 01:26:29;;;;;;;17.92;5.13;;;;;;;;;;5020946;28;20079;-79
2022/11/14 01:28:55;;;;;;;7.53;4.38;;;;;;;;;;5026214;28;20494;-79
2022/11/14 01:31:22;;;;;;;12.77;6.38;;;;;;;;;;5020348;28;20388;-80
2022/11/14 01:33:49;;;;;;;8.55;4.90;;;;;;;;;;5018923;28;20149;-81
2022/11/14 01:36:15;;;;;;;7.00;4.97;;;;;;;;;;5019811;28;20045;-80
2022/11/14 01:38:41;;;;;;;12.98;5.07;;;;;;;;;;5022302;28;20037;-79
2022/11/14 01:41:07;;;;;;;7.28;4.07;;;;;;;;;;5021559;28;20025;-80
2022/11/14 01:43:34;;;;;;;6.10;3.70;;;;;;;;;;5014670;28;20593;-79
2022/11/14 01:46:02;;;;;;;9.80;3.10;;;;;;;;;;5018891;28;20038;-78
2022/11/14 01:48:35;;;;;;;7.95;4.18;;;;;;;;;;5013168;28;20033;-80
2022/11/14 01:51:04;;;;;;;7.47;3.55;;;;;;;;;;5015937;28;20076;-79
2022/11/14 01:53:30;;;;;;;6.35;4.22;;;;;;;;;;5020812;28;20033;-79
2022/11/14 01:55:58;;;;;;;9.88;5.00;;;;;;;;;;5021347;28;20402;-80
2022/11/14 01:58:25;;;;;;;7.85;5.10;;;;;;;;;;5026849;28;20025;-80
2022/11/14 02:00:51;;;;;;;10.70;5.85;;;;;;;;;;5025044;28;20098;-80
2022/11/14 02:03:18;;;;;;;10.73;5.80;;;;;;;;;;5022661;28;20025;-79
2022/11/14 02:05:46;;;;;;;11.02;5.45;;;2.30;99.90;;;;;;5018609;28;20064;-80
2022/11/14 02:08:13;;;;;;;9.48;4.90;;;;;;;;;;5021522;28;20040;-80
2022/11/14 02:10:39;;;;;;;9.73;6.15;;;;;;;;;;5018904;28;20383;-79
2022/11/14 02:13:05;;;;;;;8.23;4.57;;;;;;;;;;5018675;28;20033;-80
2022/11/14 02:15:32;;;;;;;11.80;6.15;;;;;;;;;;5025270;28;20021;-80
2022/11/14 02:17:58;;;;;;;10.38;4.72;;;;;;;;;;5018306;28;20040;-80
2022/11/14 02:20:31;;;;;;;9.60;4.90;;;;;;;;;;5022836;28;20029;-79
2022/11/14 02:22:57;;;;;;;9.05;4.97;;;;;;;;;;5021717;28;20026;-80
2022/11/14 02:25:22;;;;;;;9.25;4.30;;;1.70;99.90;;;;;;5021241;28;20044;-79
2022/11/14 02:27:49;;;;;;;11.63;4.93;;;;;;;;;;5015238;28;20483;-80
2022/11/14 02:30:16;;;;;;;8.52;4.88;;;;;;;;;;5019932;28;20021;-80
2022/11/14 02:32:42;;;;;;;9.88;4.60;;;;;;;;;;5020462;28;20025;-79
2022/11/14 02:35:08;;;;;;;9.18;5.30;;;;;;;;;;5017200;28;20029;-81
2022/11/14 02:37:34;;;;;;;7.50;4.82;;;;;;;;;;5022579;28;20025;-81
2022/11/14 02:40:00;;;;;;;10.00;5.45;;;;;;;;;;5024002;28;21095;-82
2022/11/14 02:42:26;;;;;;;10.35;4.65;;;;;;;;;;5020683;28;20402;-82
2022/11/14 02:44:52;;;;;;;8.02;5.13;;;;;;;;;;5019286;28;20030;-82
2022/11/14 02:47:18;;;;;;;8.52;5.13;;;;;;;;;;5012906;28;20730;-82
2022/11/14 02:49:44;;;;;;;11.43;5.63;;;;;;;;;;5023185;28;20040;-82
2022/11/14 02:52:10;;;;;;;10.75;4.65;;;;;;;;;;5021389;28;20465;-82
2022/11/14 02:54:36;;;;;;;10.60;6.05;;;;;;;;;;5018246;28;20060;-83
2022/11/14 02:57:02;;;;;;;10.52;4.93;;;;;;;;;;5025518;28;20042;-81
2022/11/14 02:59:28;;;;;;;8.13;4.80;;;;;;;;;;5015447;28;20037;-82
2022/11/14 03:01:54;;;;;;;9.82;5.10;;;;;;;;;;5021010;28;20033;-81
2022/11/14 03:04:20;;;;;;;9.70;4.43;;;;;;;;;;5020464;28;20040;-81
2022/11/14 03:06:46;;;;;;;11.18;4.80;;;;;;;;;;5013635;28;20025;-80
2022/11/14 03:09:12;;;;;;;11.00;5.45;;;;;;;;;;5021248;28;20037;-81
2022/11/14 03:11:38;;;;;;;6.47;4.25;;;;;;;;;;5023673;28;20383;-81
2022/11/14 03:14:04;;;;;;;7.47;4.22;;;;;;;;;;5024830;28;20673;-83
2022/11/14 03:16:30;;;;;;;9.93;4.95;;;;;;;;;;5018580;28;20124;-82
2022/11/14 03:18:56;;;;;;;13.40;5.40;;;;;;;;;;5011716;28;20676;-82
2022/11/14 03:21:23;;;;;;;8.13;5.07;;;;;;;;;;5019695;28;20037;-82
2022/11/14 03:23:49;;;;;;;8.60;3.83;;;;;;;;;;5018077;28;20041;-82
2022/11/14 03:26:15;;;;;;;8.15;5.00;;;;;;;;;;5013808;28;20032;-81
2022/11/14 03:28:41;;;;;;;14.32;5.13;;;;;;;;;;5015235;28;21115;-82
2022/11/14 03:31:08;;;;;;;9.75;5.35;;;;;;;;;;5017745;28;20482;-81
2022/11/14 03:33:35;;;;;;;12.25;5.28;;;;;;;;;;5019652;28;20041;-82
2022/11/14 03:36:01;;;;;;;8.20;5.22;;;;;;;;;;5012120;28;20375;-82
2022/11/14 03:38:27;;;;;;;10.88;4.68;;;;;;;;;;5017800;28;20045;-82
2022/11/14 03:40:53;;;;;;;9.73;4.72;;;;;;;;;;5021950;28;20036;-82
2022/11/14 03:43:20;;;;;;;7.70;4.63;;;;;;;;;;5018025;28;20037;-82
2022/11/14 03:45:46;;;;;;;10.07;5.38;;;;;;;;;;5022611;28;20137;-81
2022/11/14 03:48:12;;;;;;;9.48;5.72;;;;;;;;;;5015714;28;20438;-82
2022/11/14 03:50:39;;;;;;;10.80;4.90;;;;;;;;;;5019502;28;20125;-81
2022/11/14 03:53:05;;;;;;;9.73;4.57;;;;;;;;;;5020751;28;20483;-81
2022/11/14 03:55:31;;;;;;;9.27;4.90;;;;;;;;;;5019387;28;20029;-82
2022/11/14 03:57:57;;;;;;;7.53;4.55;;;;;;;;;;5017992;28;20156;-82
2022/11/14 04:00:23;;;;;;;10.02;4.78;;;;;;;;;;5021219;28;20060;-83
2022/11/14 04:02:49;;;;;;;8.88;4.20;;;;;;;;;;5019595;28;20030;-82
2022/11/14 04:05:15;;;;;;;9.23;4.82;;;;;;;;;;5018462;28;20040;-83
2022/11/14 04:07:41;;;;;;;10.60;5.65;;;;;;;;;;5013312;28;20029;-82
2022/11/14 04:10:07;;;;;;;7.68;5.15;;;;;;;;;;5017099;28;20053;-81
2022/11/14 04:12:33;;;;;;;10.32;5.32;;;3.00;99.90;;;;;;5015733;28;20454;-82
2022/11/14 04:14:59;;;;;;;14.45;4.53;;;;;;;;;;5021453;28;20038;-82
2022/11/14 04:17:25;;;;;;;11.65;5.60;;;;;;;;;;5017927;28;20037;-83
2022/11/14 04:19:51;;;;;;;10.75;4.70;;;;;;;;;;5023338;28;20398;-82
2022/11/14 04:22:17;;;;;;;13.00;6.35;;;;;;;;;;5021288;28;20071;-82
2022/11/14 04:24:43;;;;;;;6.28;3.22;;;;;;;;;;5023248;28;20091;-81
2022/11/14 04:27:09;;;;;;;12.15;5.82;;;;;;;;;;5019014;28;20128;-81
2022/11/14 04:29:35;;;;;;;11.23;5.35;;;;;;;;;;5017117;28;20118;-81
2022/11/14 04:32:00;;;;;;;8.02;4.68;;;;;;;;;;5024005;28;20026;-79
2022/11/14 04:34:26;;;;;;;13.30;5.47;;;;;;;;;;5021120;28;20123;-80
2022/11/14 04:36:52;;;;;;;9.18;5.35;;;;;;;;;;5023764;28;20036;-79
2022/11/14 04:39:18;;;;;;;8.80;4.47;;;;;;;;;;5030836;28;20463;-79
2022/11/14 04:41:44;;;;;;;9.95;5.40;;;;;;;;;;5028042;28;20037;-81
2022/11/14 04:44:10;;;;;;;7.68;4.68;;;;;;;;;;5018540;28;20037;-79
2022/11/14 04:46:36;;;;;;;7.28;3.70;;;;;;;;;;5014999;28;20029;-81
2022/11/14 04:49:02;;;;;;;7.97;4.32;;;;;;;;;;5015330;28;20044;-82
2022/11/14 04:51:28;;;;;;;9.82;5.28;;;;;;;;;;5020110;28;20033;-80
2022/11/14 04:53:54;;;;;;;14.20;7.00;;;;;;;;;;5018639;28;20040;-82
2022/11/14 04:56:22;;;;;;;11.25;6.35;;;;;;;;;;5019666;28;20040;-82
2022/11/14 04:58:48;;;;;;;13.27;6.32;;;;;;;;;;5020875;28;20046;-81
2022/11/14 05:01:14;;;;;;;14.23;7.30;;;;;;;;;;5018216;28;20044;-82
2022/11/14 05:03:40;;;;;;;13.98;8.07;;;;;;;;;;5013681;28;20033;-81
2022/11/14 05:06:06;;;;;;;16.90;7.22;;;;;;;;;;5016302;28;20037;-81
2022/11/14 05:08:32;;;;;;;18.33;8.35;;;;;;;;;;5026844;28;20635;-82
2022/11/14 05:10:58;;;;;;;15.60;7.25;;;;;;;;;;5012174;28;20026;-80
2022/11/14 05:13:24;;;;;;;14.82;7.88;;;;;;;;;;5014821;28;20044;-83
2022/11/14 05:15:50;;;;;;;19.05;8.45;;;;;;;;;;5020411;28;20033;-82
2022/11/14 05:18:16;;;;;;;17.98;8.50;;;;;;;;;;5012567;28;20443;-81
2022/11/14 05:20:42;;;;;;;17.17;7.32;;;;;;;;;;5019654;28;20696;-81
2022/11/14 05:23:18;;;;;;;21.20;9.60;;;;;;;;;;5019439;28;20033;-81
2022/11/14 05:25:44;;;;;;;20.33;7.00;;;;;;;;;;5015612;28;20021;-82
2022/11/14 05:28:09;;;;;;;14.88;7.95;;;;;;;;;;5014726;28;20032;-83
2022/11/14 05:30:35;;;;;;;13.55;7.20;;;;;;;;;;5020798;28;20021;-82
2022/11/14 05:33:02;;;;;;;20.98;8.05;;;;;;;;;;5020922;28;20079;-84
2022/11/14 05:35:28;;;;;;;30.80;14.27;;;;;;;;;;5025010;28;20041;-83
2022/11/14 05:37:54;;;;;;;33.05;14.70;;;;;;;;;;5024354;28;20022;-82
2022/11/14 05:40:19;;;;;;;32.63;15.00;;;;;;;;;;5025406;28;20050;-83
2022/11/14 05:42:45;;;;;;;20.23;12.35;;;;;;;;;;5019936;28;20086;-81
2022/11/14 05:45:11;;;;;;;40.13;14.60;;;;;;;;;;5019451;28;20168;-83
2022/11/14 05:47:37;;;;;;;27.40;11.82;;;;;;;;;;5022099;28;20029;-83
2022/11/14 05:50:03;;;;;;;25.23;12.07;;;;;;;;;;5022638;28;20068;-84
2022/11/14 05:52:30;;;;;;;26.52;11.02;;;;;;;;;;5023028;28;20050;-84
2022/11/14 05:54:56;;;;;;;25.88;10.45;;;;;;;;;;5021631;28;20033;-84
2022/11/14 05:57:22;;;;;;;15.70;8.63;;;;;;;;;;5032501;28;20025;-82
2022/11/14 05:59:48;;;;;;;16.70;7.32;;;;;;;;;;5025882;28;20052;-83
2022/11/14 06:02:14;;;;;;;18.20;8.60;;;;;;;;;;5023873;28;20017;-83
2022/11/14 06:04:40;;;;;;;14.70;7.30;;;;;;;;;;5024020;28;21364;-82
2022/11/14 06:07:06;;;;;;;12.90;6.35;;;;;;;;;;5021737;28;20022;-81
2022/11/14 06:09:32;;;;;;;11.05;6.45;;;;;;;;;;5018398;28;20471;-82
2022/11/14 06:11:58;;;;;;;17.15;6.65;;;;;;;;;;5016561;28;20083;-82
2022/11/14 06:14:24;;;;;;;18.45;8.45;;;;;;;;;;5028429;28;20029;-81
2022/11/14 06:16:50;;;;;;;26.90;9.45;;;;;;;;;;5018978;28;20124;-83
2022/11/14 06:19:16;;;;;;;21.35;8.23;;;;;;;;;;5010791;28;20053;-82
2022/11/14 06:21:42;;;;;;;15.55;8.07;;;;;;;;;;5026117;28;20075;-83
2022/11/14 06:24:08;;;;;;;30.17;13.75;;;;;;;;;;5031152;28;20045;-84
2022/11/14 06:26:34;;;;;;;26.17;11.93;;;;;;;;;;5028210;28;20026;-83
2022/11/14 06:29:00;;;;;;;31.55;14.18;;;;;;;;;;5023574;28;20431;-82
2022/11/14 06:31:26;;;;;;;38.92;14.57;;;;;;;;;;5022235;28;20030;-83
2022/11/14 06:33:52;;;;;;;31.70;15.43;;;;;;;;;;5025157;28;20031;-83
2022/11/14 06:36:18;;;;;;;33.28;13.48;;;;;;;;;;5020802;28;20109;-81
2022/11/14 06:38:44;;;;;;;33.17;12.35;;;;;;;;;;5024170;28;20069;-82
2022/11/14 06:41:10;;;;;;;24.30;10.73;;;;;;;;;;5017336;28;20720;-82
2022/11/14 06:43:37;;;;;;;27.70;10.88;;;;;;;;;;5027815;28;20379;-82
2022/11/14 06:46:04;;;;;;;20.13;8.20;;;;;;;;;;5023860;28;20810;-81
2022/11/14 06:48:30;;;;;;;16.85;7.88;;;;;;;;;;5023705;28;20450;-82
2022/11/14 06:50:57;;;;;;;14.32;7.03;;;;;;;;;;5022615;28;20025;-82
2022/11/14 06:53:24;;;;;;;14.00;6.40;;;;;;;;;;5016406;28;20061;-82
2022/11/14 06:55:54;;;;;;;16.60;6.65;;;;;;;;;;5026258;28;20029;-82
2022/11/14 06:58:20;;;;;;;11.73;6.13;;;;;;;;;;5028946;28;20043;-82
2022/11/14 07:00:46;;;;;;;12.02;6.18;;;;;;;;;;5024664;28;20029;-83
2022/11/14 07:03:12;;;;;;;10.50;5.65;;;;;;;;;;5022765;28;20487;-82
2022/11/14 07:05:38;;;;;;;11.02;4.50;;;;;;;;;;5022111;28;20053;-82
2022/11/14 07:08:04;;;;;;;13.20;6.28;;;;;;;;;;5016978;28;20034;-83
2022/11/14 07:10:30;;;;;;;14.40;5.78;;;;;;;;;;5023280;28;20029;-81
2022/11/14 07:12:55;;;;;;;18.67;8.75;;;;;;;;;;5022984;28;20026;-82
2022/11/14 07:15:23;;;;;;;21.52;9.63;;;;;;;;;;5025242;28;20072;-80
2022/11/14 07:17:49;;;;;;;19.90;9.48;;;;;;;;;;5021928;28;20450;-82
2022/11/14 07:20:15;;;;;;;16.50;8.13;;;2.90;99.90;;;;;;5030841;28;20037;-81
2022/11/14 07:22:41;;;;;;;11.48;6.68;;;;;;;;;;5029034;28;20029;-81
2022/11/14 07:25:07;;;;;;;17.75;7.65;;;3.60;99.90;;;;;;5027321;28;20052;-81
2022/11/14 07:27:33;;;;;;;13.77;7.13;;;;;;;;;;5022601;28;20026;-82
2022/11/14 07:29:59;;;;;;;11.55;6.03;;;;;;;;;;5017124;28;20072;-82
2022/11/14 07:32:24;;;;;;;17.15;7.50;;;;;;;;;;5015990;28;20033;-81
2022/11/14 07:34:50;;;;;;;19.38;8.93;;;;;;;;;;5016052;28;20024;-82
2022/11/14 07:37:16;;;;;;;16.35;7.38;;;;;;;;;;5021611;28;20120;-82
2022/11/14 07:39:42;;;;;;;14.63;7.93;;;3.90;99.90;;;;;;5022230;28;20283;-82
2022/11/14 07:42:08;;;;;;;18.98;8.52;;;;;;;;;;5025908;28;20056;-82
2022/11/14 07:44:34;;;;;;;17.95;8.68;;;;;;;;;;5026030;28;20041;-83
2022/11/14 07:47:00;;;;;;;11.02;6.93;;;;;;;;;;5025192;28;20029;-81
2022/11/14 07:49:26;;;;;;;17.48;7.90;;;;;;;;;;5023125;28;20038;-81
2022/11/14 07:51:52;;;;;;;14.15;6.18;;;;;;;;;;5030987;28;20047;-83
2022/11/14 07:54:18;;;;;;;13.43;6.13;;;;;;;;;;5028419;28;20041;-82
2022/11/14 07:56:44;;;;;;;18.05;7.40;;;;;;;;;;5023842;28;20022;-82
2022/11/14 07:59:09;;;;;;;12.98;7.20;;;;;;;;;;5023147;28;20056;-83
2022/11/14 08:01:35;;;;;;;10.88;5.13;;;;;;;;;;5021921;28;20021;-83
2022/11/14 08:04:01;;;;;;;16.80;6.97;;;;;;;;;;5024910;28;20120;-84
2022/11/14 08:06:28;;;;;;;14.57;6.93;;;;;;;;;;5020336;28;20068;-84
2022/11/14 08:08:54;;;;;;;24.48;10.20;;;;;;;;;;5025550;28;20089;-81
2022/11/14 08:11:46;;;;;;;40.50;13.93;;;;;;;;;;5024096;28;20562;-83
2022/11/14 08:14:06;;;;;;;32.70;12.52;;;;;;;;;;5020689;28;20037;-82
2022/11/14 08:16:32;;;;;;;31.35;11.93;;;;;;;;;;5011110;28;20017;-83
2022/11/14 08:18:58;;;;;;;33.78;13.32;;;;;;;;;;5005703;28;20414;-83
2022/11/14 08:21:24;;;;;;;37.47;18.08;;;;;;;;;;5027765;28;20036;-83
2022/11/14 08:23:49;;;;;;;38.85;15.57;;;;;;;;;;5025295;28;20029;-83
2022/11/14 08:26:15;;;;;;;46.63;17.80;;;;;;;;;;5023836;28;20510;-83
2022/11/14 08:28:41;;;;;;;53.85;18.10;;;;;;;;;;5023074;28;20017;-84
2022/11/14 08:31:09;;;;;;;41.75;17.40;;;;;;;;;;5020381;28;20040;-82
2022/11/14 08:33:35;;;;;;;41.88;16.83;;;;;;;;;;5024112;28;20044;-84
2022/11/14 08:36:04;;;;;;;48.83;19.25;;;;;;;;;;5024338;28;20029;-83
2022/11/14 08:38:31;;;;;;;41.15;19.70;;;;;;;;;;5021688;28;20025;-84
2022/11/14 08:40:58;;;;;;;53.20;16.85;;;;;;;;;;5013760;28;20033;-84
2022/11/14 08:43:24;;;;;;;46.08;19.88;;;;;;;;;;5019212;28;20381;-84
2022/11/14 08:45:50;;;;;;;38.28;16.73;;;;;;;;;;5017162;28;20040;-84
2022/11/14 08:48:16;;;;;;;34.25;15.40;;;;;;;;;;5024412;28;20030;-83
2022/11/14 08:50:42;;;;;;;22.23;10.43;;;;;;;;;;5019618;28;20041;-84
2022/11/14 08:53:08;;;;;;;17.73;10.10;;;;;;;;;;5018859;28;20042;-84
2022/11/14 08:55:33;;;;;;;21.15;9.55;;;5.90;99.90;;;;;;5020343;28;20026;-83
2022/11/14 08:57:59;;;;;;;13.00;7.60;;;;;;;;;;5024103;28;20032;-84
2022/11/14 09:00:25;;;;;;;14.55;7.75;;;;;;;;;;5015310;28;20041;-84
2022/11/14 09:02:51;;;;;;;11.30;6.05;;;;;;;;;;5021914;28;20037;-82
2022/11/14 09:05:17;;;;;;;10.73;5.50;;;;;;;;;;5019775;28;20040;-83
2022/11/14 09:07:43;;;;;;;11.30;6.70;;;;;;;;;;5022559;28;20025;-83
2022/11/14 09:10:09;;;;;;;11.07;5.57;;;;;;;;;;5026099;28;20033;-84
2022/11/14 09:12:35;;;;;;;13.07;6.30;;;;;;;;;;5030849;28;20072;-83
2022/11/14 09:15:01;;;;;;;11.57;6.63;;;;;;;;;;5025208;28;20030;-84
2022/11/14 09:17:27;;;;;;;12.15;6.25;;;;;;;;;;5027594;28;20109;-83
2022/11/14 09:19:53;;;;;;;15.02;6.10;;;;;;;;;;5024550;28;20557;-84
2022/11/14 09:22:19;;;;;;;15.85;7.20;;;;;;;;;;5024145;28;20364;-84
2022/11/14 09:24:46;;;;;;;13.63;6.13;;;;;;;;;;5026569;28;20029;-83
2022/11/14 09:27:13;;;;;;;13.23;6.85;;;;;;;;;;5028576;28;20674;-84
2022/11/14 09:29:38;;;;;;;14.13;6.03;;;;;;;;;;5024869;28;20515;-83
2022/11/14 09:32:04;;;;;;;13.27;5.78;;;;;;;;;;5025988;28;20036;-85
2022/11/14 09:34:30;;;;;;;12.63;6.35;;;;;;;;;;5027619;28;20029;-84
2022/11/14 09:36:56;;;;;;;12.57;6.45;;;;;;;;;;5022295;28;20161;-84
2022/11/14 09:39:22;;;;;;;12.95;6.03;;;;;;;;;;5025746;28;20083;-84
2022/11/14 09:42:01;;;;;;;12.07;6.20;;;;;;;;;;5028944;28;20024;-84
2022/11/14 09:44:52;;;;;;;11.70;5.72;;;8.70;99.90;;;;;;5026044;28;20040;-83
2022/11/14 09:47:22;;;;;;;14.57;5.97;;;;;;;;;;5028908;28;20485;-84
2022/11/14 09:49:51;;;;;;;12.93;5.55;;;8.60;99.90;;;;;;5027012;28;20048;-84
2022/11/14 09:52:36;;;;;;;12.27;6.05;;;8.80;99.90;;;;;;5025365;28;20042;-84
2022/11/14 09:55:10;;;;;;;11.05;5.15;;;;;;;;;;5026784;28;20038;-84
2022/11/14 09:57:36;;;;;;;10.77;4.57;;;;;;;;;;5024122;28;20176;-84
2022/11/14 10:00:12;;;;;;;6.80;3.70;;;8.70;99.90;;;;;;5023552;28;20045;-84
2022/11/14 10:02:49;;;;;;;9.32;5.07;;;4.80;99.90;;;;;;5025779;28;20022;-83
2022/11/14 10:05:15;;;;;;;6.00;3.40;;;;;;;;;;5026974;28;20025;-83
2022/11/14 10:08:11;;;;;;;8.73;4.85;;;9.00;99.90;;;;;;5022461;28;20033;-85
2022/11/14 10:10:46;;;;;;;11.43;4.97;;;;;;;;;;5034352;28;20025;-84
2022/11/14 10:13:21;;;;;;;6.43;3.80;;;;;;;;;;5032758;28;20025;-84
2022/11/14 10:16:13;;;;;;;8.10;4.30;;;8.80;99.90;;;;;;5033439;28;20030;-84
2022/11/14 10:18:46;;;;;;;7.63;3.88;;;;;;;;;;5022617;28;20060;-84
2022/11/14 10:21:26;;;;;;;10.38;4.68;;;9.90;99.90;;;;;;5018412;28;20033;-84
2022/11/14 10:23:52;;;;;;;8.18;4.10;;;;;;;;;;5018333;28;20111;-84
2022/11/14 10:26:30;;;;;;;11.30;4.43;;;9.20;99.90;;;;;;5020078;28;20033;-85
2022/11/14 10:29:01;;;;;;;10.40;3.78;;;;;;;;;;5024240;28;20057;-84
2022/11/14 10:31:27;;;;;;;8.90;4.00;;;;;;;;;;5026187;28;20025;-84
2022/11/14 10:34:05;;;;;;;8.48;4.03;;;;;;;;;;5023595;28;20089;-84
2022/11/14 10:36:41;;;;;;;9.80;4.90;;;;;;;;;;5022206;28;20030;-84
2022/11/14 10:39:20;;;;;;;8.05;4.07;;;;;;;;;;5026876;28;20507;-84
2022/11/14 10:41:48;;;;;;;8.35;4.03;;;9.30;99.90;;;;;;5021636;28;20646;-84
2022/11/14 10:44:21;;;;;;;8.00;3.75;;;10.20;99.90;;;;;;5025497;28;20865;-84
2022/11/14 10:46:50;;;;;;;7.70;4.13;;;;;;;;;;5026151;28;20037;-85
2022/11/14 10:49:21;;;;;;;12.52;3.20;;;9.80;99.90;;;;;;5026397;28;20044;-85
2022/11/14 10:51:53;;;;;;;8.48;3.13;;;;;;;;;;5023815;28;20029;-83
2022/11/14 10:54:36;;;;;;;7.25;3.20;;;10.10;99.90;;;;;;5022114;28;20060;-83
2022/11/14 10:57:02;;;;;;;7.78;3.25;;;;;;;;;;5023420;28;20041;-83
2022/11/14 10:59:28;;;;;;;6.05;3.28;;;;;;;;;;5024424;28;20054;-84
2022/11/14 11:01:57;;;;;;;7.25;2.97;;;;;;;;;;5022946;28;20025;-84
2022/11/14 11:04:26;;;;;;;6.75;3.30;;;;;;;;;;5021491;28;20033;-84
2022/11/14 11:11:28;;;;;;;7.38;2.80;;;10.70;99.90;;;;;;5022037;28;20018;-83
2022/11/14 11:13:03;;;;;;;4.53;2.00;;;11.30;99.90;;;;;;5021626;28;20076;-83
2022/11/14 11:15:30;;;;;;;5.65;1.92;;;11.20;99.90;;;;;;5022191;28;20037;-84
2022/11/14 11:18:00;;;;;;;2.78;1.58;;;11.50;99.90;;;;;;5023949;28;20029;-82
2022/11/14 11:20:28;;;;;;;6.28;2.47;;;13.20;99.90;;;;;;5029017;28;20099;-85
2022/11/14 11:23:01;;;;;;;4.85;2.30;;;11.20;99.90;;;;;;5025676;28;20069;-85
2022/11/14 11:25:29;;;;;;;4.80;1.88;;;11.20;99.90;;;;;;5024869;28;20021;-84
2022/11/14 11:28:06;;;;;;;4.07;1.98;;;;;;;;;;5023411;28;20029;-83
2022/11/14 11:30:32;;;;;;;2.15;1.17;;;;;;;;;;5018209;28;20033;-83
2022/11/14 11:33:15;;;;;;;3.00;1.80;;;11.30;99.90;;;;;;5027145;28;20037;-84
2022/11/14 11:35:42;;;;;;;3.03;1.33;;;12.00;99.90;;;;;;5022775;28;20067;-86
2022/11/14 11:38:11;;;;;;;8.05;1.85;;;11.40;99.90;;;;;;5023585;28;20136;-84
2022/11/14 11:40:39;;;;;;;3.10;0.90;;;11.50;99.90;;;;;;5018325;28;20141;-85
2022/11/14 11:43:13;;;;;;;1.95;1.23;;;12.30;99.90;;;;;;5013191;28;20108;-84
2022/11/14 11:45:40;;;;;;;6.03;1.92;;;12.10;99.90;;;;;;5021601;28;20017;-83
2022/11/14 11:48:19;;;;;;;7.00;3.22;;;;;;;;;;5014146;28;20036;-84
2022/11/14 11:50:45;;;;;;;5.05;2.35;;;;;;;;;;5023975;28;20081;-88
2022/11/14 11:53:25;;;;;;;5.03;2.00;;;;;;;;;;5024345;28;20037;-84
2022/11/14 11:55:59;;;;;;;3.92;1.90;;;12.10;99.90;;;;;;5027735;28;20031;-83
2022/11/14 11:58:35;;;;;;;4.85;2.30;;;12.40;99.90;;;;;;5025590;28;20119;-83
2022/11/14 12:01:01;;;;;;;1.90;1.05;;;;;;;;;;5029154;28;20080;-82
2022/11/14 12:03:27;;;;;;;3.55;1.58;;;;;;;;;;5022302;28;20529;-85
2022/11/14 12:05:53;;;;;;;4.75;1.58;;;;;;;;;;5017224;28;20030;-83
2022/11/14 12:08:42;;;;;;;4.53;1.23;;;11.50;99.90;;;;;;5023619;28;20033;-83
2022/11/14 12:11:15;;;;;;;3.53;1.48;;;11.40;99.90;;;;;;5016913;28;20037;-83
2022/11/14 12:13:41;;;;;;;3.25;1.42;;;;;;;;;;5025873;28;20028;-82
2022/11/14 12:16:26;;;;;;;4.22;2.25;;;;;;;;;;5022832;28;20041;-83
2022/11/14 12:18:52;;;;;;;2.38;1.40;;;;;;;;;;5024385;28;20103;-82
2022/11/14 12:22:07;;;;;;;2.85;1.63;;;11.40;99.90;;;;;;5025061;28;20542;-83
2022/11/14 12:24:51;;;;;;;3.03;1.15;;;12.00;99.90;;;;;;4929604;29;20039;-83
2022/11/14 12:27:38;;;;;;;1.25;0.68;;;11.90;99.90;;;;;;4928898;29;20039;-82
2022/11/14 12:30:07;;;;;;;2.42;1.58;;;11.80;99.90;;;;;;5008768;28;21175;-83
2022/11/14 12:32:41;;;;;;;3.00;0.80;;;12.60;99.90;;;;;;5027011;28;20487;-83
2022/11/14 12:35:15;;;;;;;1.40;0.88;;;12.10;99.90;;;;;;5024485;28;20044;-82
2022/11/14 12:37:46;;;;;;;5.03;0.95;;;12.70;99.90;;;;;;5032930;28;20029;-83
2022/11/14 12:40:41;;;;;;;1.60;0.70;;;;;;;;;;5026375;28;20044;-82
2022/11/14 12:43:41;;;;;;;2.50;0.63;;;12.70;99.90;;;;;;5007053;28;20071;-84
2022/11/14 12:46:12;;;;;;;0.73;0.35;;;12.00;99.90;;;;;;4996290;28;20377;-83
2022/11/14 12:48:42;;;;;;;2.03;1.00;;;11.70;99.90;;;;;;5022012;28;20029;-84
2022/11/14 12:51:33;;;;;;;0.45;0.28;;;12.80;99.90;;;;;;5028305;28;20117;-84
2022/11/14 12:54:01;;;;;;;1.13;0.73;;;11.70;99.90;;;;;;5017357;28;20041;-82
2022/11/14 12:56:30;;;;;;;1.33;0.68;;;12.90;99.90;;;;;;5020028;28;20045;-81
2022/11/14 12:59:23;;;;;;;1.48;0.52;;;12.30;99.90;;;;;;5024544;28;20042;-82
2022/11/14 13:01:52;;;;;;;1.30;0.60;;;;;;;;;;5016438;28;20087;-84
2022/11/14 13:04:37;;;;;;;1.98;0.68;;;12.00;99.90;;;;;;5024536;28;20547;-83
2022/11/14 13:07:10;;;;;;;1.27;0.57;;;13.00;99.90;;;;;;5025457;28;20033;-83
2022/11/14 13:10:07;;;;;;;1.67;0.70;;;13.30;99.90;;;;;;5025838;28;20117;-84
2022/11/14 13:23:47;;;;;;;0.93;0.40;;;12.60;99.90;;;;;;5026600;28;20052;-83
2022/11/14 13:26:13;;;;;;;1.95;0.40;;;;;;;;;;5021465;28;20033;-84
2022/11/14 13:28:44;;;;;;;2.22;1.10;;;12.10;99.90;;;;;;5028680;28;20419;-83
2022/11/14 13:31:15;;;;;;;2.15;0.90;;;12.10;99.90;;;;;;5027253;28;20059;-83
2022/11/14 13:33:48;;;;;;;0.95;0.40;;;11.90;99.90;;;;;;5030050;28;20037;-84
2022/11/14 13:36:44;;;;;;;1.48;0.40;;;12.70;99.90;;;;;;5025782;28;20124;-84
2022/11/14 13:39:28;;;;;;;0.68;0.20;;;12.30;99.90;;;;;;5024535;28;20104;-84
2022/11/14 13:42:12;;;;;;;0.93;0.35;;;12.00;99.90;;;;;;5026241;28;20568;-84
2022/11/14 13:44:50;;;;;;;0.30;0.20;;;12.00;99.90;;;;;;5029429;28;20110;-82
2022/11/14 13:47:46;;;;;;;0.70;0.65;;;11.60;99.90;;;;;;5022045;28;20093;-83
2022/11/14 13:50:16;;;;;;;1.17;0.50;;;11.90;99.90;;;;;;5030618;28;20053;-84
2022/11/14 13:52:45;;;;;;;1.95;0.50;;;12.30;99.90;;;;;;5034115;28;20044;-83
2022/11/14 13:55:26;;;;;;;1.70;0.40;;;12.20;99.90;;;;;;5025918;28;20082;-83
2022/11/14 13:58:11;;;;;;;2.15;0.65;;;11.70;99.90;;;;;;5024290;28;20025;-83
2022/11/14 14:01:01;;;;;;;1.60;0.30;;;12.60;99.90;;;;;;5034222;28;20040;-84
2022/11/14 14:04:02;;;;;;;0.35;0.20;;;12.90;99.90;;;;;;5030094;28;20028;-84
2022/11/14 14:06:28;;;;;;;0.60;0.35;;;;;;;;;;4951713;28;20030;-85
2022/11/14 14:09:06;;;;;;;0.50;0.30;;;12.20;99.90;;;;;;5011122;28;20033;-82
2022/11/14 14:11:34;;;;;;;2.45;0.65;;;12.50;99.90;;;;;;5028464;28;20468;-84
2022/11/14 14:14:20;;;;;;;1.48;0.32;;;12.30;99.90;;;;;;5030635;28;20025;-83
2022/11/14 14:16:56;;;;;;;0.13;0.13;;;11.80;99.90;;;;;;5025260;28;20052;-84
2022/11/14 14:19:42;;;;;;;1.02;0.47;;;12.90;99.90;;;;;;5025802;28;20515;-83
2022/11/14 14:22:08;;;;;;;13.68;3.13;;;;;;;;;;5029258;28;20029;-84
2022/11/14 14:24:59;;;;;;;4.10;1.52;;;11.90;99.90;;;;;;5022134;28;20088;-84
2022/11/14 14:27:28;;;;;;;1.63;0.57;;;;;;;;;;5012147;28;20141;-83
2022/11/14 14:30:07;;;;;;;0.80;0.30;;;12.50;99.90;;;;;;5033073;28;20029;-82
2022/11/14 14:32:33;;;;;;;3.38;1.50;;;;;;;;;;5024721;28;20144;-83